createdAt,value
2023-03-11T00:00:35.786Z,6.311
2023-03-11T00:01:35.157Z,6.311
2023-03-11T00:02:35.051Z,6.311
2023-03-11T00:04:01.596Z,6.343
2023-03-11T00:04:34.498Z,6.333
2023-03-11T00:05:35.107Z,6.322
2023-03-11T00:06:34.618Z,6.311
2023-03-11T00:07:34.806Z,6.311
2023-03-11T00:08:35.118Z,6.311
2023-03-11T00:09:34.700Z,6.311
2023-03-11T00:10:35.310Z,6.311
2023-03-11T00:11:34.123Z,6.311
2023-03-11T00:12:35.447Z,6.311
2023-03-11T00:13:35.597Z,6.311
2023-03-11T00:14:34.694Z,6.260
2023-03-11T00:15:35.347Z,6.25
2023-03-11T00:16:34.870Z,6.25
2023-03-11T00:17:35.087Z,6.25
2023-03-11T00:18:34.876Z,6.25
2023-03-11T00:19:34.622Z,6.229
2023-03-11T00:20:35.311Z,6.25
2023-03-11T00:21:34.912Z,6.25
2023-03-11T00:22:34.831Z,6.223
2023-03-11T00:23:34.658Z,6.237
2023-03-11T00:24:34.650Z,6.25
2023-03-11T00:25:35.753Z,6.186
2023-03-11T00:26:34.935Z,6.186
2023-03-11T00:27:35.539Z,6.212
2023-03-11T00:28:34.892Z,6.241
2023-03-11T00:29:35.358Z,6.186
2023-03-11T00:30:35.506Z,6.231
2023-03-11T00:31:34.697Z,6.25
2023-03-11T00:32:35.246Z,6.241
2023-03-11T00:33:34.431Z,6.186
2023-03-11T00:34:34.840Z,6.186
2023-03-11T00:35:35.523Z,6.186
2023-03-11T00:36:35.038Z,6.196
2023-03-11T00:37:34.415Z,6.186
2023-03-11T00:38:34.803Z,6.25
2023-03-11T00:39:34.768Z,6.25
2023-03-11T00:40:35.316Z,6.25
2023-03-11T00:41:34.930Z,6.25
2023-03-11T00:42:35.176Z,6.25
2023-03-11T00:43:34.499Z,6.25
2023-03-11T00:44:34.183Z,6.25
2023-03-11T00:45:35.602Z,6.25
2023-03-11T00:46:34.531Z,6.25
2023-03-11T00:47:34.731Z,6.25
2023-03-11T00:48:34.884Z,6.25
2023-03-11T00:49:34.607Z,6.229
2023-03-11T00:50:34.881Z,6.229
2023-03-11T00:51:35.242Z,6.25
2023-03-11T00:52:34.868Z,6.25
2023-03-11T00:53:35.433Z,6.239
2023-03-11T00:54:34.052Z,6.197
2023-03-11T00:55:34.916Z,6.25
2023-03-11T00:56:34.842Z,6.25
2023-03-11T00:57:34.718Z,6.25
2023-03-11T00:58:34.560Z,6.25
2023-03-11T00:59:34.952Z,6.208
2023-03-11T01:00:36.699Z,6.186
2023-03-11T01:01:39.835Z,6.186
2023-03-11T01:02:35.200Z,6.186
2023-03-11T01:03:34.783Z,6.229
2023-03-11T01:04:35.148Z,6.186
2023-03-11T01:05:34.972Z,6.208
2023-03-11T01:06:45.197Z,6.239
2023-03-11T01:07:35.247Z,6.208
2023-03-11T01:08:35.305Z,6.25
2023-03-11T01:09:34.866Z,6.25
2023-03-11T01:10:36.225Z,6.25
2023-03-11T01:11:34.966Z,6.25
2023-03-11T01:12:35.360Z,6.25
2023-03-11T01:13:35.396Z,6.25
2023-03-11T01:14:35.472Z,6.25
2023-03-11T01:15:35.016Z,6.25
2023-03-11T01:16:34.927Z,6.25
2023-03-11T01:17:35.174Z,6.25
2023-03-11T01:18:34.666Z,6.25
2023-03-11T01:19:35.048Z,6.25
2023-03-11T01:20:35.209Z,6.25
2023-03-11T01:21:34.994Z,6.25
2023-03-11T01:22:34.449Z,6.291
2023-03-11T01:23:34.892Z,6.25
2023-03-11T01:24:35.149Z,6.25
2023-03-11T01:25:35.465Z,6.25
2023-03-11T01:26:34.816Z,6.25
2023-03-11T01:27:34.760Z,6.25
2023-03-11T01:28:34.893Z,6.25
2023-03-11T01:29:34.813Z,6.25
2023-03-11T01:30:35.281Z,6.311
2023-03-11T01:31:35.206Z,6.311
2023-03-11T01:32:34.484Z,6.281
2023-03-11T01:33:35.335Z,6.301
2023-03-11T01:34:35.099Z,6.311
2023-03-11T01:35:34.768Z,6.311
2023-03-11T01:36:35.647Z,6.301
2023-03-11T01:37:34.818Z,6.25
2023-03-11T01:38:34.597Z,6.25
2023-03-11T01:39:35.238Z,6.25
2023-03-11T01:40:34.645Z,6.25
2023-03-11T01:41:34.755Z,6.25
2023-03-11T01:42:35.256Z,6.25
2023-03-11T01:43:34.759Z,6.25
2023-03-11T01:44:34.775Z,6.25
2023-03-11T01:45:35.924Z,6.270
2023-03-11T01:46:34.817Z,6.311
2023-03-11T01:47:35.038Z,6.260
2023-03-11T01:48:34.812Z,6.25
2023-03-11T01:49:34.674Z,6.25
2023-03-11T01:50:34.867Z,6.25
2023-03-11T01:51:35.303Z,6.25
2023-03-11T01:52:39.992Z,6.197
2023-03-11T01:53:34.612Z,6.237
2023-03-11T01:54:34.896Z,6.25
2023-03-11T01:55:35.287Z,6.25
2023-03-11T01:56:34.552Z,6.25
2023-03-11T01:57:34.676Z,6.25
2023-03-11T01:58:34.907Z,6.204
2023-03-11T01:59:35.269Z,6.186
2023-03-11T02:01:38.063Z,6.186
2023-03-11T02:02:34.861Z,6.196
2023-03-11T02:03:35.340Z,6.199
2023-03-11T02:04:34.772Z,6.241
2023-03-11T02:05:34.830Z,6.25
2023-03-11T02:06:35.360Z,6.25
2023-03-11T02:07:34.671Z,6.199
2023-03-11T02:08:34.934Z,6.241
2023-03-11T02:09:35.022Z,6.25
2023-03-11T02:10:34.827Z,6.196
2023-03-11T02:11:35.378Z,6.199
2023-03-11T02:12:34.906Z,6.25
2023-03-11T02:13:35.217Z,6.25
2023-03-11T02:14:34.982Z,6.25
2023-03-11T02:15:34.932Z,6.25
2023-03-11T02:16:35.517Z,6.25
2023-03-11T02:17:35.308Z,6.239
2023-03-11T02:18:35.165Z,6.186
2023-03-11T02:19:34.754Z,6.25
2023-03-11T02:20:35.572Z,6.25
2023-03-11T02:21:35.246Z,6.25
2023-03-11T02:22:34.885Z,6.25
2023-03-11T02:23:35.134Z,6.229
2023-03-11T02:24:34.120Z,6.186
2023-03-11T02:25:34.858Z,6.25
2023-03-11T02:26:34.100Z,6.25
2023-03-11T02:27:34.279Z,6.25
2023-03-11T02:28:34.281Z,6.25
2023-03-11T02:29:34.505Z,6.25
2023-03-11T02:30:35.189Z,6.25
2023-03-11T02:31:34.356Z,6.25
2023-03-11T02:32:35.174Z,6.208
2023-03-11T02:33:34.513Z,6.186
2023-03-11T02:34:34.293Z,6.156
2023-03-11T02:35:35.031Z,6.186
2023-03-11T02:36:34.696Z,6.197
2023-03-11T02:37:35.304Z,6.186
2023-03-11T02:38:34.043Z,6.186
2023-03-11T02:39:34.114Z,6.186
2023-03-11T02:40:34.588Z,6.208
2023-03-11T02:41:35.049Z,6.25
2023-03-11T02:42:34.730Z,6.197
2023-03-11T02:43:34.959Z,6.25
2023-03-11T02:44:34.366Z,6.197
2023-03-11T02:45:34.930Z,6.186
2023-03-11T02:46:35.088Z,6.186
2023-03-11T02:47:34.610Z,6.186
2023-03-11T02:48:35.220Z,6.186
2023-03-11T02:49:34.496Z,6.186
2023-03-11T02:50:34.895Z,6.186
2023-03-11T02:51:34.995Z,6.176
2023-03-11T02:52:34.650Z,6.125
2023-03-11T02:53:35.122Z,6.125
2023-03-11T02:54:34.151Z,6.125
2023-03-11T02:55:34.510Z,6.125
2023-03-11T02:56:34.877Z,6.145
2023-03-11T02:57:35.267Z,6.145
2023-03-11T02:58:34.792Z,6.125
2023-03-11T02:59:34.434Z,6.125
2023-03-11T03:01:34.803Z,6.125
2023-03-11T03:02:35.150Z,6.125
2023-03-11T03:03:34.603Z,6.125
2023-03-11T03:04:34.820Z,6.125
2023-03-11T03:05:35.204Z,6.125
2023-03-11T03:06:34.348Z,6.125
2023-03-11T03:07:34.332Z,6.125
2023-03-11T03:08:34.660Z,6.125
2023-03-11T03:09:35.412Z,6.125
2023-03-11T03:10:35.563Z,6.125
2023-03-11T03:11:34.875Z,6.125
2023-03-11T03:12:34.857Z,6.125
2023-03-11T03:13:35.561Z,6.125
2023-03-11T03:14:34.404Z,6.125
2023-03-11T03:15:34.693Z,6.125
2023-03-11T03:16:35.789Z,6.125
2023-03-11T03:17:34.872Z,6.104
2023-03-11T03:18:34.804Z,6.125
2023-03-11T03:19:34.744Z,6.114
2023-03-11T03:20:35.097Z,6.125
2023-03-11T03:21:34.746Z,6.125
2023-03-11T03:22:36.047Z,6.125
2023-03-11T03:23:34.088Z,6.125
2023-03-11T03:24:33.820Z,6.125
2023-03-11T03:25:34.642Z,6.083
2023-03-11T03:26:34.705Z,6.061
2023-03-11T03:27:35.236Z,6.061
2023-03-11T03:28:34.523Z,6.061
2023-03-11T03:29:34.306Z,6.072
2023-03-11T03:30:34.933Z,6.061
2023-03-11T03:31:34.966Z,6.061
2023-03-11T03:32:34.477Z,6.079
2023-03-11T03:33:35.019Z,6.061
2023-03-11T03:34:34.765Z,6.071
2023-03-11T03:35:34.802Z,6.061
2023-03-11T03:36:35.278Z,6.089
2023-03-11T03:37:34.375Z,6.112
2023-03-11T03:38:34.563Z,6.079
2023-03-11T03:39:34.322Z,6.125
2023-03-11T03:40:34.659Z,6.079
2023-03-11T03:41:35.127Z,6.061
2023-03-11T03:42:34.514Z,6.125
2023-03-11T03:43:34.780Z,6.061
2023-03-11T03:44:34.642Z,6.061
2023-03-11T03:45:35.128Z,6.061
2023-03-11T03:46:34.847Z,6.053
2023-03-11T03:47:34.902Z,6.061
2023-03-11T03:48:34.940Z,6.044
2023-03-11T03:49:35.143Z,6.061
2023-03-11T03:50:34.337Z,6.061
2023-03-11T03:51:35.058Z,6.061
2023-03-11T03:52:34.655Z,6.061
2023-03-11T03:53:35.431Z,6.061
2023-03-11T03:54:34.293Z,6.061
2023-03-11T03:55:35.513Z,6.061
2023-03-11T03:56:34.635Z,6.020
2023-03-11T03:57:34.259Z,6
2023-03-11T03:58:34.353Z,6.010
2023-03-11T03:59:34.198Z,6.041
2023-03-11T04:00:36.347Z,6
2023-03-11T04:01:36.026Z,6
2023-03-11T04:02:35.125Z,6
2023-03-11T04:03:35.124Z,6
2023-03-11T04:04:35.303Z,6
2023-03-11T04:05:34.681Z,6
2023-03-11T04:06:35.496Z,6
2023-03-11T04:07:34.908Z,6
2023-03-11T04:08:35.093Z,6
2023-03-11T04:09:34.952Z,5.989
2023-03-11T04:10:35.403Z,5.947
2023-03-11T04:11:35.683Z,6
2023-03-11T04:12:35.150Z,5.947
2023-03-11T04:13:34.844Z,5.936
2023-03-11T04:14:34.881Z,5.936
2023-03-11T04:15:35.351Z,5.968
2023-03-11T04:16:34.994Z,5.968
2023-03-11T04:17:39.949Z,6
2023-03-11T04:18:35.546Z,6
2023-03-11T04:19:35.138Z,5.958
2023-03-11T04:20:35.005Z,5.936
2023-03-11T04:21:34.493Z,5.936
2023-03-11T04:22:34.811Z,5.936
2023-03-11T04:23:35.162Z,5.936
2023-03-11T04:24:34.604Z,5.936
2023-03-11T04:25:35.717Z,5.885
2023-03-11T04:26:35.785Z,5.875
2023-03-11T04:27:35.462Z,5.895
2023-03-11T04:28:34.925Z,5.875
2023-03-11T04:29:34.871Z,5.875
2023-03-11T04:30:35.253Z,5.875
2023-03-11T04:31:34.352Z,5.875
2023-03-11T04:32:34.718Z,5.875
2023-03-11T04:33:34.858Z,5.875
2023-03-11T04:34:34.708Z,5.875
2023-03-11T04:35:34.780Z,5.875
2023-03-11T04:36:35.165Z,5.875
2023-03-11T04:37:34.340Z,5.875
2023-03-11T04:38:34.532Z,5.875
2023-03-11T04:39:34.896Z,5.875
2023-03-11T04:40:35.614Z,5.875
2023-03-11T04:41:34.728Z,5.875
2023-03-11T04:42:35.051Z,5.875
2023-03-11T04:43:48.565Z,5.875
2023-03-11T04:44:34.965Z,5.875
2023-03-11T04:45:35.591Z,5.875
2023-03-11T04:46:34.926Z,5.843
2023-03-11T04:47:34.370Z,5.864
2023-03-11T04:48:34.467Z,5.864
2023-03-11T04:49:34.653Z,5.811
2023-03-11T04:50:35.322Z,5.811
2023-03-11T04:51:34.951Z,5.801
2023-03-11T04:52:34.494Z,5.811
2023-03-11T04:53:35.172Z,5.811
2023-03-11T04:54:35.036Z,5.811
2023-03-11T04:55:34.876Z,5.770
2023-03-11T04:56:35.683Z,5.75
2023-03-11T04:57:35.170Z,5.75
2023-03-11T04:58:34.896Z,5.770
2023-03-11T04:59:35.575Z,5.75
2023-03-11T05:00:36.432Z,5.75
2023-03-11T05:01:35.594Z,5.762
2023-03-11T05:02:35.431Z,5.75
2023-03-11T05:03:34.972Z,5.811
2023-03-11T05:04:34.677Z,5.811
2023-03-11T05:05:35.059Z,5.811
2023-03-11T05:06:34.503Z,5.811
2023-03-11T05:07:35.414Z,5.811
2023-03-11T05:08:34.899Z,5.776
2023-03-11T05:09:34.812Z,5.75
2023-03-11T05:10:35.952Z,5.75
2023-03-11T05:11:35.225Z,5.75
2023-03-11T05:12:34.608Z,5.811
2023-03-11T05:13:35.031Z,5.799
2023-03-11T05:14:34.463Z,5.758
2023-03-11T05:15:35.549Z,5.75
2023-03-11T05:16:35.480Z,5.75
2023-03-11T05:17:34.577Z,5.697
2023-03-11T05:18:35.418Z,5.686
2023-03-11T05:19:34.741Z,5.686
2023-03-11T05:20:35.324Z,5.676
2023-03-11T05:21:35.129Z,5.686
2023-03-11T05:22:34.937Z,5.686
2023-03-11T05:23:35.120Z,5.666
2023-03-11T05:24:34.917Z,5.635
2023-03-11T05:25:35.901Z,5.635
2023-03-11T05:26:34.895Z,5.666
2023-03-11T05:27:34.932Z,5.656
2023-03-11T05:28:35.433Z,5.625
2023-03-11T05:29:35.116Z,5.625
2023-03-11T05:30:34.893Z,5.625
2023-03-11T05:31:35.281Z,5.625
2023-03-11T05:32:35.150Z,5.625
2023-03-11T05:33:34.693Z,5.625
2023-03-11T05:34:35.263Z,5.625
2023-03-11T05:35:35.222Z,5.593
2023-03-11T05:36:34.848Z,5.561
2023-03-11T05:37:35.201Z,5.561
2023-03-11T05:38:35.054Z,5.561
2023-03-11T05:39:35.199Z,5.561
2023-03-11T05:40:35.239Z,5.561
2023-03-11T05:41:35.151Z,5.561
2023-03-11T05:42:34.873Z,5.625
2023-03-11T05:43:35.486Z,5.625
2023-03-11T05:44:35.055Z,5.625
2023-03-11T05:45:35.001Z,5.625
2023-03-11T05:46:35.630Z,5.614
2023-03-11T05:47:35.273Z,5.614
2023-03-11T05:48:35.473Z,5.625
2023-03-11T05:49:34.842Z,5.625
2023-03-11T05:50:35.088Z,5.625
2023-03-11T05:51:34.796Z,5.625
2023-03-11T05:52:35.864Z,5.625
2023-03-11T05:53:35.562Z,5.635
2023-03-11T05:54:34.619Z,5.666
2023-03-11T05:55:35.300Z,5.625
2023-03-11T05:56:34.740Z,5.666
2023-03-11T05:57:35.452Z,5.686
2023-03-11T05:58:34.719Z,5.686
2023-03-11T05:59:35.432Z,5.686
2023-03-11T06:00:37.017Z,5.645
2023-03-11T06:01:35.283Z,5.625
2023-03-11T06:02:34.517Z,5.625
2023-03-11T06:03:35.039Z,5.625
2023-03-11T06:04:35.107Z,5.625
2023-03-11T06:05:35.397Z,5.645
2023-03-11T06:06:35.053Z,5.686
2023-03-11T06:07:34.751Z,5.686
2023-03-11T06:08:35.233Z,5.625
2023-03-11T06:09:34.598Z,5.625
2023-03-11T06:10:35.700Z,5.625
2023-03-11T06:11:37.232Z,5.614
2023-03-11T06:12:35.200Z,5.572
2023-03-11T06:13:35.884Z,5.625
2023-03-11T06:14:36.422Z,5.614
2023-03-11T06:15:35.565Z,5.625
2023-03-11T06:16:36.113Z,5.625
2023-03-11T06:17:34.976Z,5.625
2023-03-11T06:18:35.341Z,5.656
2023-03-11T06:19:35.017Z,5.718
2023-03-11T06:20:34.756Z,5.697
2023-03-11T06:21:34.986Z,5.686
2023-03-11T06:22:35.008Z,5.676
2023-03-11T06:23:34.671Z,5.635
2023-03-11T06:24:35.206Z,5.686
2023-03-11T06:25:35.439Z,5.686
2023-03-11T06:26:35.536Z,5.686
2023-03-11T06:27:35.785Z,5.686
2023-03-11T06:28:35.662Z,5.739
2023-03-11T06:29:35.059Z,5.729
2023-03-11T06:30:35.433Z,5.75
2023-03-11T06:31:35.497Z,5.75
2023-03-11T06:32:35.840Z,5.75
2023-03-11T06:33:35.862Z,5.770
2023-03-11T06:34:35.666Z,5.749
2023-03-11T06:35:35.300Z,5.686
2023-03-11T06:36:35.568Z,5.723
2023-03-11T06:37:36.253Z,5.686
2023-03-11T06:38:37.365Z,5.696
2023-03-11T06:39:35.439Z,5.75
2023-03-11T06:40:35.084Z,5.729
2023-03-11T06:41:34.747Z,5.737
2023-03-11T06:42:35.225Z,5.767
2023-03-11T06:43:34.189Z,5.75
2023-03-11T06:44:35.365Z,5.75
2023-03-11T06:45:35.346Z,5.787
2023-03-11T06:46:34.758Z,5.75
2023-03-11T06:47:35.117Z,5.739
2023-03-11T06:48:34.945Z,5.75
2023-03-11T06:49:35.872Z,5.781
2023-03-11T06:50:36.359Z,5.781
2023-03-11T06:51:35.571Z,5.811
2023-03-11T06:52:34.935Z,5.811
2023-03-11T06:53:35.740Z,5.811
2023-03-11T06:54:35.100Z,5.811
2023-03-11T06:55:36.393Z,5.811
2023-03-11T06:56:36.053Z,5.854
2023-03-11T06:57:35.562Z,5.854
2023-03-11T06:58:36.259Z,5.811
2023-03-11T06:59:35.183Z,5.811
2023-03-11T07:01:06.677Z,5.822
2023-03-11T07:01:37.914Z,5.864
2023-03-11T07:02:35.636Z,5.811
2023-03-11T07:03:35.848Z,5.811
2023-03-11T07:04:35.481Z,5.811
2023-03-11T07:05:35.411Z,5.811
2023-03-11T07:06:35.806Z,5.811
2023-03-11T07:07:36.207Z,5.811
2023-03-11T07:08:36.211Z,5.822
2023-03-11T07:09:35.652Z,5.875
2023-03-11T07:10:36.919Z,5.854
2023-03-11T07:11:35.746Z,5.843
2023-03-11T07:12:36.953Z,5.811
2023-03-11T07:13:35.750Z,5.843
2023-03-11T07:14:36.873Z,5.811
2023-03-11T07:15:36.372Z,5.822
2023-03-11T07:16:36.145Z,5.875
2023-03-11T07:17:36.020Z,5.854
2023-03-11T07:18:35.917Z,5.811
2023-03-11T07:19:36.308Z,5.833
2023-03-11T07:20:36.101Z,5.875
2023-03-11T07:21:35.778Z,5.833
2023-03-11T07:22:36.326Z,5.811
2023-03-11T07:23:35.703Z,5.811
2023-03-11T07:24:36.341Z,5.811
2023-03-11T07:25:36.070Z,5.811
2023-03-11T07:26:36.426Z,5.833
2023-03-11T07:27:37.177Z,5.811
2023-03-11T07:28:35.642Z,5.864
2023-03-11T07:29:35.778Z,5.811
2023-03-11T07:30:36.820Z,5.791
2023-03-11T07:31:36.529Z,5.833
2023-03-11T07:32:35.864Z,5.875
2023-03-11T07:33:36.183Z,5.875
2023-03-11T07:34:35.371Z,5.875
2023-03-11T07:35:35.766Z,5.801
2023-03-11T07:36:36.095Z,5.811
2023-03-11T07:37:36.008Z,5.843
2023-03-11T07:38:35.299Z,5.875
2023-03-11T07:39:36.142Z,5.843
2023-03-11T07:40:35.659Z,5.875
2023-03-11T07:41:35.873Z,5.811
2023-03-11T07:42:35.699Z,5.811
2023-03-11T07:43:35.091Z,5.854
2023-03-11T07:44:35.392Z,5.875
2023-03-11T07:45:35.660Z,5.875
2023-03-11T07:46:35.533Z,5.875
2023-03-11T07:47:35.809Z,5.916
2023-03-11T07:48:36.005Z,5.936
2023-03-11T07:49:35.157Z,5.936
2023-03-11T07:51:34.936Z,5.916
2023-03-11T07:52:36.426Z,5.875
2023-03-11T07:53:35.775Z,5.885
2023-03-11T07:54:35.757Z,5.875
2023-03-11T07:55:36.297Z,5.885
2023-03-11T07:56:35.288Z,5.936
2023-03-11T07:57:35.193Z,5.916
2023-03-11T07:58:35.308Z,5.875
2023-03-11T07:59:35.090Z,5.936
2023-03-11T08:00:36.548Z,5.885
2023-03-11T08:01:36.331Z,5.864
2023-03-11T08:02:35.665Z,5.906
2023-03-11T08:03:36.782Z,5.906
2023-03-11T08:04:36.048Z,5.875
2023-03-11T08:05:36.531Z,5.895
2023-03-11T08:06:36.324Z,5.885
2023-03-11T08:07:38.946Z,5.862
2023-03-11T08:08:36.405Z,5.821
2023-03-11T08:09:35.424Z,5.875
2023-03-11T08:10:36.531Z,5.875
2023-03-11T08:11:36.817Z,5.875
2023-03-11T08:12:36.664Z,5.875
2023-03-11T08:13:38.611Z,5.924
2023-03-11T08:14:35.970Z,5.936
2023-03-11T08:15:37.070Z,5.936
2023-03-11T08:16:36.283Z,5.910
2023-03-11T08:17:35.742Z,5.912
2023-03-11T08:18:36.555Z,5.901
2023-03-11T08:19:35.931Z,5.936
2023-03-11T08:20:35.977Z,5.936
2023-03-11T08:21:35.211Z,5.936
2023-03-11T08:22:38.071Z,5.906
2023-03-11T08:23:36.708Z,5.936
2023-03-11T08:24:36.897Z,5.936
2023-03-11T08:25:36.498Z,5.947
2023-03-11T08:26:36.189Z,5.906
2023-03-11T08:27:36.061Z,5.916
2023-03-11T08:28:35.761Z,5.864
2023-03-11T08:29:36.226Z,5.885
2023-03-11T08:30:35.971Z,5.895
2023-03-11T08:31:37.318Z,5.936
2023-03-11T08:32:36.840Z,5.936
2023-03-11T08:33:41.515Z,5.936
2023-03-11T08:34:35.761Z,5.885
2023-03-11T08:35:36.656Z,5.906
2023-03-11T08:36:36.746Z,5.936
2023-03-11T08:37:37.980Z,5.936
2023-03-11T08:38:35.894Z,5.936
2023-03-11T08:39:35.830Z,5.936
2023-03-11T08:40:36.429Z,5.916
2023-03-11T08:41:35.901Z,5.936
2023-03-11T08:42:37.228Z,5.958
2023-03-11T08:43:35.912Z,5.947
2023-03-11T08:46:36.074Z,5.936
2023-03-11T08:47:35.557Z,5.936
2023-03-11T08:48:36.092Z,5.936
2023-03-11T08:49:35.332Z,6
2023-03-11T08:50:47.440Z,6
2023-03-11T08:51:35.613Z,5.958
2023-03-11T08:52:36.023Z,5.936
2023-03-11T08:53:35.905Z,5.968
2023-03-11T08:54:36.138Z,6
2023-03-11T08:55:35.922Z,6
2023-03-11T08:56:36.803Z,6
2023-03-11T08:57:36.445Z,5.989
2023-03-11T08:58:36.542Z,4.900
2023-03-11T08:59:36.260Z,5.989
2023-03-11T09:00:37.535Z,5.947
2023-03-11T09:01:36.672Z,5.958
2023-03-11T09:02:36.845Z,5.979
2023-03-11T09:03:36.133Z,5.989
2023-03-11T09:04:35.306Z,5.936
2023-03-11T09:05:41.266Z,5.936
2023-03-11T09:06:36.017Z,5.979
2023-03-11T09:07:35.568Z,6.010
2023-03-11T09:08:36.126Z,6.061
2023-03-11T09:09:41.125Z,6.031
2023-03-11T09:10:36.227Z,6
2023-03-11T09:11:40.389Z,6
2023-03-11T09:12:35.555Z,6.041
2023-03-11T09:13:36.380Z,6.051
2023-03-11T09:14:35.526Z,6
2023-03-11T09:15:36.858Z,6
2023-03-11T09:16:36.841Z,6
2023-03-11T09:17:41.811Z,6
2023-03-11T09:18:36.715Z,6
2023-03-11T09:19:36.133Z,6
2023-03-11T09:20:36.125Z,6
2023-03-11T09:21:36.355Z,6.020
2023-03-11T09:22:35.884Z,6.010
2023-03-11T09:23:37.069Z,6.061
2023-03-11T09:24:35.385Z,6.061
2023-03-11T09:26:06.050Z,6.020
2023-03-11T09:26:37.444Z,6
2023-03-11T09:27:35.858Z,6.051
2023-03-11T09:28:36.458Z,6.041
2023-03-11T09:29:50.062Z,6.031
2023-03-11T09:30:35.237Z,6.061
2023-03-11T09:31:35.617Z,6.061
2023-03-11T09:32:36.473Z,5
2023-03-11T09:33:49.834Z,6.061
2023-03-11T09:34:36.335Z,6.061
2023-03-11T09:35:35.679Z,6.061
2023-03-11T09:36:36.237Z,6.061
2023-03-11T09:38:05.840Z,6.093
2023-03-11T09:38:37.569Z,6.125
2023-03-11T09:39:36.312Z,6.112
2023-03-11T09:40:36.171Z,6.106
2023-03-11T09:41:42.395Z,6.024
2023-03-11T09:42:36.032Z,6.061
2023-03-11T09:43:54.885Z,6.061
2023-03-11T09:44:36.564Z,6.061
2023-03-11T09:46:05.801Z,6.087
2023-03-11T09:46:37.243Z,6.125
2023-03-11T09:47:35.705Z,6.087
2023-03-11T09:48:36.848Z,6.061
2023-03-11T09:49:35.967Z,6.061
2023-03-11T09:50:36.886Z,6.061
2023-03-11T09:51:36.202Z,6.112
2023-03-11T09:52:35.850Z,6.106
2023-03-11T09:53:36.513Z,6.061
2023-03-11T09:54:36.192Z,6.061
2023-03-11T09:55:36.214Z,6.074
2023-03-11T09:56:36.391Z,6.083
2023-03-11T09:57:35.724Z,6.125
2023-03-11T09:58:35.889Z,6.125
2023-03-11T09:59:36.705Z,6.125
2023-03-11T10:00:37.731Z,5.099
2023-03-11T10:01:35.755Z,6.125
2023-03-11T10:02:36.654Z,6.072
2023-03-11T10:03:39.671Z,6.114
2023-03-11T10:04:36.059Z,6.125
2023-03-11T10:05:34.860Z,6.114
2023-03-11T10:06:36.466Z,6.104
2023-03-11T10:07:36.668Z,6.125
2023-03-11T10:08:36.244Z,6.166
2023-03-11T10:09:39.169Z,6.156
2023-03-11T10:10:36.805Z,6.072
2023-03-11T10:11:35.572Z,6.083
2023-03-11T10:12:35.816Z,6.125
2023-03-11T10:13:36.266Z,6.145
2023-03-11T10:14:35.665Z,6.125
2023-03-11T10:15:38.364Z,6.125
2023-03-11T10:16:35.929Z,6.125
2023-03-11T10:17:36.075Z,6.186
2023-03-11T10:18:35.854Z,6.166
2023-03-11T10:19:35.589Z,6.135
2023-03-11T10:20:36.268Z,6.176
2023-03-11T10:21:38.932Z,6.186
2023-03-11T10:22:35.757Z,6.186
2023-03-11T10:23:36.371Z,6.156
2023-03-11T10:24:36.118Z,6.156
2023-03-11T10:25:35.472Z,6.135
2023-03-11T10:26:35.725Z,6.125
2023-03-11T10:27:35.462Z,6.125
2023-03-11T10:28:35.909Z,6.145
2023-03-11T10:29:36.290Z,6.135
2023-03-11T10:30:35.943Z,6.125
2023-03-11T10:31:36.335Z,6.156
2023-03-11T10:32:35.713Z,6.125
2023-03-11T10:34:36.307Z,6.125
2023-03-11T10:35:35.894Z,6.135
2023-03-11T10:36:35.908Z,6.125
2023-03-11T10:37:48.255Z,6.135
2023-03-11T10:38:35.550Z,6.125
2023-03-11T10:39:35.901Z,6.125
2023-03-11T10:40:37.600Z,6.125
2023-03-11T10:41:36.291Z,6.125
2023-03-11T10:42:34.549Z,6.125
2023-03-11T10:43:35.985Z,6.135
2023-03-11T10:44:35.337Z,6.135
2023-03-11T10:45:36.053Z,6.186
2023-03-11T10:46:36.144Z,6.186
2023-03-11T10:47:35.611Z,6.176
2023-03-11T10:48:36.340Z,6.125
2023-03-11T10:49:36.149Z,5.099
2023-03-11T10:50:36.881Z,6.125
2023-03-11T10:51:37.456Z,6.125
2023-03-11T10:52:36.587Z,6.125
2023-03-11T10:53:36.441Z,6.125
2023-03-11T10:54:36.367Z,6.125
2023-03-11T10:55:36.244Z,6.125
2023-03-11T10:56:40.903Z,6.166
2023-03-11T10:57:36.328Z,6.186
2023-03-11T10:58:35.824Z,6.166
2023-03-11T10:59:38.065Z,6.145
2023-03-11T11:00:39.258Z,6.125
2023-03-11T11:01:38.400Z,6.125
2023-03-11T11:02:43.653Z,6.125
2023-03-11T11:03:38.198Z,6.125
2023-03-11T11:04:36.890Z,6.166
2023-03-11T11:05:37.547Z,6.149
2023-03-11T11:06:41.709Z,6.151
2023-03-11T11:07:36.847Z,6.135
2023-03-11T11:08:36.728Z,6.125
2023-03-11T11:09:38.299Z,6.125
2023-03-11T11:10:35.924Z,6.125
2023-03-11T11:11:36.592Z,6.174
2023-03-11T11:12:43.938Z,6.186
2023-03-11T11:13:36.743Z,6.186
2023-03-11T11:14:36.237Z,6.186
2023-03-11T11:15:37.029Z,6.186
2023-03-11T11:16:49.862Z,6.186
2023-03-11T11:17:36.763Z,6.186
2023-03-11T11:18:50.290Z,6.145
2023-03-11T11:19:36.005Z,6.125
2023-03-11T11:20:50.269Z,6.125
2023-03-11T11:21:36.154Z,6.125
2023-03-11T11:22:36.652Z,6.125
2023-03-11T11:23:36.569Z,6.137
2023-03-11T11:24:44.132Z,6.176
2023-03-11T11:26:49.960Z,6.186
2023-03-11T11:27:36.037Z,6.186
2023-03-11T11:28:35.884Z,6.186
2023-03-11T11:29:36.311Z,6.186
2023-03-11T11:30:54.354Z,6.186
2023-03-11T11:31:36.182Z,6.186
2023-03-11T11:32:35.864Z,6.186
2023-03-11T11:33:36.428Z,6.186
2023-03-11T11:34:36.824Z,6.186
2023-03-11T11:35:36.232Z,6.186
2023-03-11T11:36:54.126Z,6.197
2023-03-11T11:38:35.709Z,6.229
2023-03-11T11:39:35.487Z,6.218
2023-03-11T11:40:40.999Z,6.239
2023-03-11T11:41:35.036Z,6.25
2023-03-11T11:42:42.790Z,6.25
2023-03-11T11:43:36.303Z,6.208
2023-03-11T11:44:35.775Z,6.229
2023-03-11T11:45:36.267Z,6.25
2023-03-11T11:46:35.149Z,6.25
2023-03-11T11:47:35.520Z,6.25
2023-03-11T11:48:35.896Z,6.25
2023-03-11T11:49:35.934Z,6.25
2023-03-11T11:50:37.317Z,6.25
2023-03-11T11:51:35.977Z,6.25
2023-03-11T11:52:36.675Z,6.25
2023-03-11T11:53:36.260Z,6.25
2023-03-11T11:54:35.957Z,6.25
2023-03-11T11:55:36.813Z,6.25
2023-03-11T11:56:36.122Z,5.199
2023-03-11T11:57:35.746Z,6.25
2023-03-11T11:58:36.096Z,6.25
2023-03-11T11:59:34.903Z,6.25
2023-03-11T12:00:36.462Z,6.260
2023-03-11T12:01:36.793Z,6.25
2023-03-11T12:02:36.731Z,6.25
2023-03-11T12:03:37.343Z,6.25
2023-03-11T12:04:36.057Z,6.25
2023-03-11T12:05:36.925Z,6.25
2023-03-11T12:06:36.274Z,6.25
2023-03-11T12:07:36.288Z,6.25
2023-03-11T12:08:37.225Z,6.25
2023-03-11T12:09:36.433Z,6.25
2023-03-11T12:10:38.081Z,6.25
2023-03-11T12:11:36.242Z,6.25
2023-03-11T12:12:36.047Z,6.25
2023-03-11T12:13:35.773Z,6.25
2023-03-11T12:14:36.381Z,6.25
2023-03-11T12:15:36.090Z,6.25
2023-03-11T12:16:36.082Z,6.25
2023-03-11T12:17:36.110Z,6.25
2023-03-11T12:19:04.523Z,6.25
2023-03-11T12:19:37.355Z,6.25
2023-03-11T12:20:36.825Z,6.25
2023-03-11T12:21:36.597Z,6.25
2023-03-11T12:22:36.292Z,6.25
2023-03-11T12:23:36.301Z,6.25
2023-03-11T12:24:36.228Z,6.25
2023-03-11T12:25:36.929Z,5.199
2023-03-11T12:26:36.473Z,6.25
2023-03-11T12:27:36.629Z,6.25
2023-03-11T12:28:36.433Z,6.25
2023-03-11T12:29:36.351Z,6.25
2023-03-11T12:30:36.441Z,6.25
2023-03-11T12:31:35.995Z,6.25
2023-03-11T12:32:35.436Z,6.25
2023-03-11T12:33:36.305Z,5.199
2023-03-11T12:34:36.957Z,6.25
2023-03-11T12:35:36.659Z,6.25
2023-03-11T12:36:35.993Z,6.25
2023-03-11T12:37:36.223Z,6.25
2023-03-11T12:38:36.283Z,6.25
2023-03-11T12:39:35.725Z,6.25
2023-03-11T12:41:35.928Z,6.262
2023-03-11T12:42:36.744Z,6.311
2023-03-11T12:43:36.902Z,6.311
2023-03-11T12:44:36.929Z,6.303
2023-03-11T12:45:37.344Z,6.311
2023-03-11T12:46:35.731Z,6.303
2023-03-11T12:47:36.776Z,6.311
2023-03-11T12:48:37.404Z,6.311
2023-03-11T12:49:36.356Z,6.311
2023-03-11T12:50:36.756Z,6.311
2023-03-11T12:51:36.830Z,6.311
2023-03-11T12:52:36.573Z,6.311
2023-03-11T12:53:36.539Z,6.299
2023-03-11T12:54:36.264Z,6.311
2023-03-11T12:55:36.423Z,6.287
2023-03-11T12:56:36.323Z,6.267
2023-03-11T12:57:36.640Z,6.311
2023-03-11T12:58:37.421Z,6.311
2023-03-11T12:59:35.712Z,6.291
2023-03-11T13:00:37.305Z,6.25
2023-03-11T13:01:36.969Z,6.25
2023-03-11T13:02:35.397Z,6.25
2023-03-11T13:03:36.430Z,6.25
2023-03-11T13:04:36.699Z,6.25
2023-03-11T13:05:36.473Z,6.311
2023-03-11T13:06:36.017Z,6.301
2023-03-11T13:07:35.756Z,6.281
2023-03-11T13:08:35.599Z,6.260
2023-03-11T13:09:36.018Z,6.281
2023-03-11T13:10:36.818Z,6.311